Time;durP1;ratioP1;P1;durP2;ratioP2;P2;SDS_P1;SDS_P2;PMS_P1;PMS_P2;Temp;Humidity;BMP_temperature;BMP_pressure;BME280_temperature;BME280_humidity;BME280_pressure;Samples;Min_cycle;Max_cycle;Signal;HPM_P1;HPM_P2
2021/06/17 00:01:13;;;;;;;8.37;5.50;;;;;;;;;;5015569;28;20423;-71
2021/06/17 00:03:39;;;;;;;7.50;5.33;;;;;;;;;;5029233;28;20423;-71
2021/06/17 00:06:05;;;;;;;8.20;5.20;;;;;;;;;;5035208;28;20399;-71
2021/06/17 00:08:32;;;;;;;7.67;5.57;;;;;;;;;;5021131;28;20780;-71
2021/06/17 00:10:59;;;;;;;7.47;4.80;;;;;;;;;;5015293;28;20447;-71
2021/06/17 00:13:27;;;;;;;7.10;5.70;;;;;;;;;;5027458;28;20462;-71
2021/06/17 00:15:55;;;;;;;9.30;6.40;;;;;;;;;;5034941;28;20479;-71
2021/06/17 00:18:21;;;;;;;7.30;5.63;;;;;;;;;;5033973;28;20839;-71
2021/06/17 00:20:48;;;;;;;9.53;6.80;;;;;;;;;;5033626;28;20427;-71
2021/06/17 00:23:14;;;;;;;7.90;6.13;;;;;;;;;;5033008;28;20414;-71
2021/06/17 00:25:41;;;;;;;8.40;5.50;;;;;;;;;;5034776;28;20391;-71
2021/06/17 00:28:07;;;;;;;8.53;6.73;;;;;;;;;;5033629;28;20513;-71
2021/06/17 00:30:34;;;;;;;10.47;6.13;;;;;;;;;;5034860;28;20418;-71
2021/06/17 00:33:00;;;;;;;8.47;5.80;;;;;;;;;;5033873;28;20501;-71
2021/06/17 00:35:28;;;;;;;9.90;6.83;;;;;;;;;;5034674;28;20767;-71
2021/06/17 00:37:54;;;;;;;7.87;4.97;;;;;;;;;;5033403;28;20918;-71
2021/06/17 00:40:21;;;;;;;7.57;5.17;;;;;;;;;;5034466;28;20415;-71
2021/06/17 00:42:49;;;;;;;7.53;6.17;;;;;;;;;;5033366;28;20430;-71
2021/06/17 00:45:18;;;;;;;7.83;5.90;;;;;;;;;;5034758;28;20415;-71
2021/06/17 00:47:44;;;;;;;9.27;5.30;;;;;;;;;;5028607;28;20924;-71
2021/06/17 00:50:11;;;;;;;9.17;6.17;;;;;;;;;;5021886;28;20992;-71
2021/06/17 00:52:37;;;;;;;6.90;6.20;;;;;;;;;;5029935;28;20617;-71
2021/06/17 00:55:04;;;;;;;7.47;5.23;;;;;;;;;;5014434;28;20400;-71
2021/06/17 00:57:30;;;;;;;8.37;5.67;;;;;;;;;;5016862;28;20449;-71
2021/06/17 00:59:56;;;;;;;9.67;4.90;;;;;;;;;;5034091;28;20855;-71
2021/06/17 01:02:22;;;;;;;10.30;6.00;;;;;;;;;;5031514;28;20439;-71
2021/06/17 01:04:48;;;;;;;7.87;5.20;;;;;;;;;;5014498;28;20763;-71
2021/06/17 01:07:20;;;;;;;6.87;4.77;;;;;;;;;;5014441;28;20438;-71
2021/06/17 01:09:47;;;;;;;5.60;4.97;;;;;;;;;;5014037;28;20407;-71
2021/06/17 01:12:31;;;;;;;5.87;5.00;;;;;;;;;;5013989;28;20598;-71
2021/06/17 01:15:05;;;;;;;8.37;5.43;;;;;;;;;;5024114;28;20426;-72
2021/06/17 01:17:34;;;;;;;7.00;5.13;;;;;;;;;;5019039;28;20434;-71
2021/06/17 01:20:08;;;;;;;6.23;4.57;;;;;;;;;;5030078;28;20836;-71
2021/06/17 01:22:50;;;;;;;9.47;5.10;;;;;;;;;;5032914;28;20481;-71
2021/06/17 01:25:28;;;;;;;9.70;5.07;;;;;;;;;;5033972;28;20391;-71
2021/06/17 01:28:01;;;;;;;6.77;5.10;;;;;;;;;;5032625;28;20560;-71
2021/06/17 01:30:30;;;;;;;7.47;5.83;;;;;;;;;;5033706;28;20462;-71
2021/06/17 01:32:58;;;;;;;8.30;5.40;;;;;;;;;;5031735;28;20540;-71
2021/06/17 01:35:25;;;;;;;9.63;5.70;;;;;;;;;;5033676;28;20407;-71
2021/06/17 01:37:53;;;;;;;10.53;6.43;;;;;;;;;;5028765;28;20983;-71
2021/06/17 01:40:19;;;;;;;6.93;5.23;;;;;;;;;;5013722;28;20915;-71
2021/06/17 01:42:46;;;;;;;9.00;5.97;;;;;;;;;;5016405;28;20460;-71
2021/06/17 01:45:12;;;;;;;6.60;5.33;;;;;;;;;;5033300;28;20407;-71
2021/06/17 01:47:39;;;;;;;7.50;6.17;;;;;;;;;;5031587;28;20403;-71
2021/06/17 01:50:06;;;;;;;6.37;5.60;;;;;;;;;;5032991;28;20462;-70
2021/06/17 01:52:33;;;;;;;8.47;6.13;;;;;;;;;;5029811;28;20680;-71
2021/06/17 01:55:00;;;;;;;8.27;4.80;;;;;;;;;;5029485;28;20427;-71
2021/06/17 01:57:27;;;;;;;13.57;5.60;;;;;;;;;;5032338;28;20811;-71
2021/06/17 01:59:54;;;;;;;9.50;6.10;;;;;;;;;;5031985;28;20457;-71
2021/06/17 02:02:21;;;;;;;8.80;5.63;;;;;;;;;;5032084;28;20473;-71
2021/06/17 02:04:51;;;;;;;9.23;6.10;;;;;;;;;;5018412;28;20776;-71
2021/06/17 02:07:19;;;;;;;8.57;5.80;;;;;;;;;;5013477;28;20403;-71
2021/06/17 02:09:45;;;;;;;8.00;5.70;;;;;;;;;;5026356;28;20458;-71
2021/06/17 02:12:12;;;;;;;10.40;6.60;;;;;;;;;;5032855;28;20462;-70
2021/06/17 02:14:38;;;;;;;8.97;6.40;;;;;;;;;;5032741;28;20426;-70
2021/06/17 02:17:06;;;;;;;7.17;5.67;;;;;;;;;;5032046;28;20808;-70
2021/06/17 02:19:34;;;;;;;7.73;5.50;;;;;;;;;;5031740;28;20442;-69
2021/06/17 02:22:01;;;;;;;16.17;6.30;;;;;;;;;;5031509;28;20425;-71
2021/06/17 02:24:28;;;;;;;8.50;7.00;;;;;;;;;;5032060;28;20430;-70
2021/06/17 02:26:56;;;;;;;8.03;5.83;;;;;;;;;;5032889;28;20410;-70
2021/06/17 02:29:23;;;;;;;8.10;6.10;;;;;;;;;;5032091;28;20953;-70
2021/06/17 02:31:49;;;;;;;7.00;5.70;;;;;;;;;;5032585;28;20457;-70
2021/06/17 02:34:17;;;;;;;10.53;5.83;;;;;;;;;;5031731;28;20433;-70
2021/06/17 02:36:44;;;;;;;6.60;5.27;;;;;;;;;;5032651;28;20403;-70
2021/06/17 02:39:11;;;;;;;8.00;5.63;;;;;;;;;;5031497;28;20517;-70
2021/06/17 02:41:39;;;;;;;6.17;4.83;;;;;;;;;;5031127;28;20418;-70
2021/06/17 02:44:05;;;;;;;6.30;5.70;;;;;;;;;;5029793;28;20533;-70
2021/06/17 02:46:31;;;;;;;10.70;5.67;;;;;;;;;;5032683;28;20414;-70
2021/06/17 02:48:57;;;;;;;9.30;5.20;;;;;;;;;;5031754;28;20513;-70
2021/06/17 02:51:24;;;;;;;7.67;5.43;;;;;;;;;;5032306;28;20964;-70
2021/06/17 02:53:50;;;;;;;7.67;6.40;;;;;;;;;;5027855;28;20801;-70
2021/06/17 02:56:24;;;;;;;12.57;6.30;;;;;;;;;;5012553;28;20414;-71
2021/06/17 02:58:55;;;;;;;10.80;6.40;;;;;;;;;;5031609;28;20800;-70
2021/06/17 03:01:31;;;;;;;6.73;5.40;;;;;;;;;;5032488;28;20419;-70
2021/06/17 03:03:59;;;;;;;6.57;5.50;;;;;;;;;;5027237;28;20800;-70
2021/06/17 03:06:28;;;;;;;7.90;5.20;;;;;;;;;;5012845;28;20408;-70
2021/06/17 03:08:53;;;;;;;6.90;5.87;;;;;;;;;;5016137;28;20419;-70
2021/06/17 03:11:20;;;;;;;6.40;4.73;;;;;;;;;;5032083;28;20981;-70
2021/06/17 03:13:48;;;;;;;7.63;5.50;;;;;;;;;;5029481;28;20442;-70
2021/06/17 03:16:16;;;;;;;5.67;4.70;;;;;;;;;;5012946;28;20880;-70
2021/06/17 03:18:43;;;;;;;5.53;4.90;;;;;;;;;;5013704;28;20396;-70
2021/06/17 03:21:10;;;;;;;8.17;4.70;;;;;;;;;;5032269;28;20454;-70
2021/06/17 03:23:37;;;;;;;8.67;5.17;;;;;;;;;;5038680;28;20431;-71
2021/06/17 03:26:05;;;;;;;6.20;5.20;;;;;;;;;;5023971;28;20489;-70
2021/06/17 03:28:32;;;;;;;7.17;5.10;;;;;;;;;;5035580;28;20407;-71
2021/06/17 03:30:58;;;;;;;8.73;5.07;;;;;;;;;;5016433;28;20439;-70
2021/06/17 03:33:26;;;;;;;12.73;5.23;;;;;;;;;;5015963;28;20447;-70
2021/06/17 03:35:52;;;;;;;8.80;4.93;;;;;;;;;;5034435;28;20427;-70
2021/06/17 03:38:19;;;;;;;9.13;5.97;;;;;;;;;;5036025;28;20448;-70
2021/06/17 03:40:46;;;;;;;7.30;5.20;;;;;;;;;;5034510;28;20459;-70
2021/06/17 03:43:13;;;;;;;10.17;5.60;;;;;;;;;;5035794;28;20402;-70
2021/06/17 03:45:41;;;;;;;6.23;4.40;;;;;;;;;;5034694;28;20442;-70
2021/06/17 03:48:08;;;;;;;6.70;5.33;;;;;;;;;;5035742;28;20406;-70
2021/06/17 03:50:34;;;;;;;5.63;4.73;;;;;;;;;;5034178;28;20501;-70
2021/06/17 03:53:00;;;;;;;6.97;5.47;;;;;;;;;;5035403;28;20485;-70
2021/06/17 03:55:27;;;;;;;6.77;5.07;;;;;;;;;;5020662;28;20450;-70
2021/06/17 03:57:56;;;;;;;6.00;4.40;;;;;;;;;;5028656;28;20427;-70
2021/06/17 04:00:23;;;;;;;8.43;5.23;;;;;;;;;;5020864;28;20455;-70
2021/06/17 04:02:51;;;;;;;7.80;5.53;;;;;;;;;;5027285;28;20466;-70
2021/06/17 04:05:18;;;;;;;8.90;5.77;;;;;;;;;;5034586;28;20435;-70
2021/06/17 04:07:45;;;;;;;4.83;3.93;;;;;;;;;;5035346;28;20403;-71
2021/06/17 04:10:11;;;;;;;6.80;4.20;;;;;;;;;;5034268;28;20454;-71
2021/06/17 04:12:38;;;;;;;9.50;6.37;;;;;;;;;;5035584;28;20451;-71
2021/06/17 04:15:05;;;;;;;8.27;5.50;;;;;;;;;;5033272;28;20840;-71
2021/06/17 04:17:39;;;;;;;7.80;5.63;;;;;;;;;;5035400;28;20403;-71
2021/06/17 04:20:06;;;;;;;11.80;6.90;;;;;;;;;;5023874;28;20449;-71
2021/06/17 04:22:36;;;;;;;9.93;5.00;;;;;;;;;;5015454;28;20434;-71
2021/06/17 04:25:03;;;;;;;12.23;6.20;;;;;;;;;;5023491;28;20441;-71
2021/06/17 04:27:30;;;;;;;9.40;5.83;;;;;;;;;;5034997;28;20453;-71
2021/06/17 04:29:56;;;;;;;8.00;5.90;;;;;;;;;;5033988;28;20894;-71
2021/06/17 04:32:23;;;;;;;8.60;5.40;;;;;;;;;;5034729;28;20446;-71
2021/06/17 04:34:50;;;;;;;9.67;5.50;;;;;;;;;;5034000;28;20808;-71
2021/06/17 04:37:18;;;;;;;7.40;5.77;;;;;;;;;;5034067;28;20399;-71
2021/06/17 04:39:44;;;;;;;9.00;5.20;;;;;;;;;;5028770;28;20439;-71
2021/06/17 04:42:11;;;;;;;11.10;5.77;;;;;;;;;;5015025;28;20464;-71
2021/06/17 04:44:41;;;;;;;14.37;5.47;;;;;;;;;;5033454;28;20895;-71
2021/06/17 04:47:08;;;;;;;6.70;5.17;;;;;;;;;;5034494;28;20493;-71
2021/06/17 04:49:38;;;;;;;7.57;5.50;;;;;;;;;;5030998;28;20466;-71
2021/06/17 04:52:05;;;;;;;9.63;4.93;;;;;;;;;;5014881;28;20454;-71
2021/06/17 04:54:31;;;;;;;7.83;5.00;;;;;;;;;;5017099;28;20434;-71
2021/06/17 04:56:57;;;;;;;7.70;5.50;;;;;;;;;;5034372;28;20399;-71
2021/06/17 04:59:23;;;;;;;9.97;5.33;;;;;;;;;;5034006;28;20426;-71
2021/06/17 05:01:50;;;;;;;10.07;5.47;;;;;;;;;;5032012;28;20472;-71
2021/06/17 05:04:18;;;;;;;9.50;5.67;;;;;;;;;;5032583;28;20845;-71
2021/06/17 05:06:55;;;;;;;7.03;5.63;;;;;;;;;;5032082;28;20423;-72
2021/06/17 05:12:06;;;;;;;9.03;4.90;;;;;;;;;;5033234;28;21036;-71
2021/06/17 05:14:34;;;;;;;8.23;4.77;;;;;;;;;;5032655;28;20801;-70
2021/06/17 05:17:00;;;;;;;15.10;5.77;;;;;;;;;;5031671;28;20845;-70
2021/06/17 05:19:26;;;;;;;6.37;5.27;;;;;;;;;;5034547;28;20425;-72
2021/06/17 05:21:52;;;;;;;6.87;4.93;;;;;;;;;;5035296;28;20446;-71
2021/06/17 05:24:18;;;;;;;8.40;5.00;;;;;;;;;;5035939;28;20433;-70
2021/06/17 05:26:44;;;;;;;8.53;5.77;;;;;;;;;;5036391;28;20434;-70
2021/06/17 05:29:10;;;;;;;10.93;5.30;;;;;;;;;;5036751;28;20553;-71
2021/06/17 05:31:36;;;;;;;9.47;5.13;;;;;;;;;;5035758;28;20478;-71
2021/06/17 05:34:02;;;;;;;7.40;4.90;;;;;;;;;;5036450;28;20773;-70
2021/06/17 05:36:28;;;;;;;12.53;5.47;;;;;;;;;;5033292;28;20930;-70
2021/06/17 05:38:54;;;;;;;14.93;5.40;;;;;;;;;;5032161;28;20490;-67
2021/06/17 05:41:20;;;;;;;8.13;5.40;;;;;;;;;;5032806;28;20446;-67
2021/06/17 05:43:46;;;;;;;6.87;5.37;;;;;;;;;;5032507;28;20524;-67
2021/06/17 05:46:13;;;;;;;8.50;4.80;;;;;;;;;;5032481;28;20427;-67
2021/06/17 05:48:40;;;;;;;7.13;5.50;;;;;;;;;;5033551;28;20435;-67
2021/06/17 05:51:06;;;;;;;12.33;5.70;;;;;;;;;;5029030;28;20454;-67
2021/06/17 05:53:33;;;;;;;8.63;5.30;;;;;;;;;;5033592;28;20797;-67
2021/06/17 05:55:59;;;;;;;5.80;4.80;;;;;;;;;;5032442;28;20427;-67
2021/06/17 05:58:25;;;;;;;6.57;5.30;;;;;;;;;;5032120;28;20509;-67
2021/06/17 06:00:51;;;;;;;10.47;5.50;;;;;;;;;;5026682;28;20454;-67
2021/06/17 06:03:17;;;;;;;9.43;5.03;;;;;;;;;;5013503;28;20435;-67
2021/06/17 06:05:43;;;;;;;5.13;4.40;;;;;;;;;;5017718;28;20429;-67
2021/06/17 06:08:13;;;;;;;5.03;4.27;;;;;;;;;;5032915;28;20735;-67
2021/06/17 06:10:40;;;;;;;5.60;4.90;;;;;;;;;;5031725;28;20457;-67
2021/06/17 06:13:06;;;;;;;4.30;3.80;;;;;;;;;;5032961;28;20469;-67
2021/06/17 06:15:35;;;;;;;8.10;4.47;;;;;;;;;;5029642;28;20903;-67
2021/06/17 06:18:08;;;;;;;7.77;4.60;;;;;;;;;;5013141;28;20396;-67
2021/06/17 06:20:34;;;;;;;6.00;4.40;;;;;;;;;;5015026;28;20446;-67
2021/06/17 06:23:01;;;;;;;11.47;5.30;;;;;;;;;;5032843;28;20410;-67
2021/06/17 06:25:27;;;;;;;9.03;4.47;;;;;;;;;;5031873;28;20899;-67
2021/06/17 06:27:53;;;;;;;8.70;4.53;;;;;;;;;;5032804;28;20835;-67
2021/06/17 06:30:19;;;;;;;5.43;4.00;;;;;;;;;;5031681;28;20433;-68
2021/06/17 06:32:45;;;;;;;6.77;3.87;;;;;;;;;;5013035;28;20476;-67
2021/06/17 06:35:12;;;;;;;5.53;3.80;;;;;;;;;;5012960;28;20400;-67
2021/06/17 06:37:38;;;;;;;16.20;4.40;;;;;;;;;;5012909;28;20424;-67
2021/06/17 06:40:05;;;;;;;5.40;3.70;;;;;;;;;;5013099;28;20501;-67
2021/06/17 06:42:31;;;;;;;7.27;4.17;;;;;;;;;;5030928;28;20430;-67
2021/06/17 06:44:57;;;;;;;4.70;3.67;;;;;;;;;;5032618;28;20761;-67
2021/06/17 06:47:24;;;;;;;13.00;4.80;;;;;;;;;;5031753;28;20434;-67
2021/06/17 06:49:50;;;;;;;6.27;4.93;;;;;;;;;;5032161;28;20480;-67
2021/06/17 06:52:16;;;;;;;4.83;4.07;;;;;;;;;;5031338;28;20465;-67
2021/06/17 06:54:42;;;;;;;8.00;4.13;;;;;;;;;;5032482;28;20464;-67
2021/06/17 06:57:08;;;;;;;12.23;4.17;;;;;;;;;;5030511;28;20445;-67
2021/06/17 06:59:34;;;;;;;4.90;3.93;;;;;;;;;;5032711;28;20418;-67
2021/06/17 07:02:00;;;;;;;11.10;3.63;;;;;;;;;;5033906;28;20437;-67
2021/06/17 07:04:26;;;;;;;5.93;3.97;;;;;;;;;;5035287;28;20404;-68
2021/06/17 07:06:52;;;;;;;6.40;3.67;;;;;;;;;;5034492;28;20433;-67
2021/06/17 07:09:18;;;;;;;6.90;4.33;;;;;;;;;;5036054;28;20490;-67
2021/06/17 07:11:46;;;;;;;9.33;4.20;;;;;;;;;;5034637;28;20508;-67
2021/06/17 07:14:12;;;;;;;7.07;3.90;;;;;;;;;;5035963;28;20774;-70
2021/06/17 07:16:38;;;;;;;4.40;3.50;;;;;;;;;;5035349;28;20481;-70
2021/06/17 07:19:06;;;;;;;4.50;3.50;;;;;;;;;;5036090;28;20414;-73
2021/06/17 07:21:33;;;;;;;6.13;3.53;;;;;;;;;;5035767;28;20456;-71
2021/06/17 07:23:59;;;;;;;5.00;3.93;;;;;;;;;;5036560;28;20910;-71
2021/06/17 07:26:28;;;;;;;5.87;3.80;;;;;;;;;;5035650;28;20433;-71
2021/06/17 07:28:57;;;;;;;6.47;4.10;;;;;;;;;;5036419;28;20405;-71
2021/06/17 07:31:26;;;;;;;5.97;4.10;;;;;;;;;;5028808;28;20992;-73
2021/06/17 07:33:52;;;;;;;6.37;3.80;;;;;;;;;;5034472;28;20429;-75
2021/06/17 07:36:19;;;;;;;5.93;4.10;;;;;;;;;;5032679;28;20505;-73
2021/06/17 07:38:45;;;;;;;7.50;3.93;;;;;;;;;;5034920;28;21193;-72
2021/06/17 07:41:11;;;;;;;6.77;4.53;;;;;;;;;;5021112;28;20931;-71
2021/06/17 07:43:37;;;;;;;7.97;4.00;;;;;;;;;;5035857;28;20524;-73
2021/06/17 07:46:04;;;;;;;6.73;4.63;;;;;;;;;;5034291;28;20421;-71
2021/06/17 07:48:31;;;;;;;4.50;3.20;;;;;;;;;;5034702;28;20490;-72
2021/06/17 07:50:57;;;;;;;7.07;3.90;;;;;;;;;;5028661;28;23075;-72
2021/06/17 07:53:23;;;;;;;8.70;4.50;;;;;;;;;;5032871;28;20458;-74
2021/06/17 07:55:49;;;;;;;6.27;4.10;;;;;;;;;;5032227;28;20506;-72
2021/06/17 07:58:16;;;;;;;8.47;3.93;;;;;;;;;;5035356;28;20517;-75
2021/06/17 08:00:42;;;;;;;5.90;4.13;;;;;;;;;;5034820;28;20841;-73
2021/06/17 08:03:09;;;;;;;4.23;3.33;;;;;;;;;;5049626;28;20769;-70
2021/06/17 08:05:35;;;;;;;4.63;4.20;;;;;;;;;;5033293;28;20437;-70
2021/06/17 08:08:01;;;;;;;5.70;4.20;;;;;;;;;;5021803;28;20431;-71
2021/06/17 08:10:28;;;;;;;6.60;4.20;;;;;;;;;;5024309;28;20454;-74
2021/06/17 08:12:54;;;;;;;4.07;3.50;;;;;;;;;;5031209;28;20576;-73
2021/06/17 08:15:20;;;;;;;7.13;4.17;;;;;;;;;;5034764;28;20450;-73
2021/06/17 08:17:46;;;;;;;6.47;4.60;;;;;;;;;;5033161;28;20445;-70
2021/06/17 08:20:12;;;;;;;6.03;4.77;;;;;;;;;;5034817;28;20426;-70
2021/06/17 08:22:40;;;;;;;5.70;4.47;;;;;;;;;;5033411;28;20845;-69
2021/06/17 08:25:07;;;;;;;4.27;3.37;;;;;;;;;;5034995;28;20418;-69
2021/06/17 08:27:34;;;;;;;5.40;3.60;;;;;;;;;;5033026;28;20427;-69
2021/06/17 08:30:01;;;;;;;9.23;3.57;;;;;;;;;;5034149;28;20443;-69
2021/06/17 08:32:27;;;;;;;6.43;4.10;;;;;;;;;;5033571;28;20576;-69
2021/06/17 08:34:53;;;;;;;4.83;4.30;;;;;;;;;;5033749;28;20986;-69
2021/06/17 08:37:19;;;;;;;6.10;4.43;;;;;;;;;;5033193;28;20465;-69
2021/06/17 08:39:45;;;;;;;6.67;4.00;;;;;;;;;;5034529;28;20525;-69
2021/06/17 08:42:11;;;;;;;7.77;4.30;;;;;;;;;;5032655;28;20438;-69
2021/06/17 08:44:37;;;;;;;5.37;4.00;;;;;;;;;;5032595;28;20534;-73
2021/06/17 08:47:03;;;;;;;3.90;3.33;;;;;;;;;;5026701;28;20446;-72
2021/06/17 08:49:29;;;;;;;5.70;4.50;;;;;;;;;;5026793;28;20454;-77
2021/06/17 08:51:59;;;;;;;4.30;3.80;;;;;;;;;;5032656;28;20495;-74
2021/06/17 08:54:26;;;;;;;4.40;3.53;;;;;;;;;;5032798;28;20433;-74
2021/06/17 08:56:52;;;;;;;4.70;3.90;;;;;;;;;;5033222;28;21030;-74
2021/06/17 08:59:18;;;;;;;5.57;3.67;;;;;;;;;;5033776;28;20434;-72
2021/06/17 09:01:54;;;;;;;7.13;4.47;;;;;;;;;;5032805;28;20603;-72
2021/06/17 09:04:23;;;;;;;5.97;5.37;;;;;;;;;;5034181;28;20406;-73
2021/06/17 09:06:59;;;;;;;7.10;4.47;;;;;;;;;;5032409;28;20977;-73
2021/06/17 09:09:30;;;;;;;4.63;3.70;;;;;;;;;;5033267;28;20430;-73
2021/06/17 09:11:57;;;;;;;5.50;4.27;;;;;;;;;;5032650;28;20458;-71
2021/06/17 09:14:26;;;;;;;7.77;3.73;;;;;;;;;;5032718;28;20783;-71
2021/06/17 09:17:10;;;;;;;5.70;3.90;;;;;;;;;;5031890;28;20434;-72
2021/06/17 09:19:38;;;;;;;6.23;4.63;;;;;;;;;;5031981;28;20438;-74
2021/06/17 09:22:04;;;;;;;10.20;4.03;;;;;;;;;;5032450;28;20438;-73
2021/06/17 09:24:34;;;;;;;5.97;3.90;;;;;;;;;;5033316;28;20450;-73
2021/06/17 09:27:22;;;;;;;5.27;3.93;;;;;;;;;;5025871;28;20427;-73
2021/06/17 09:29:49;;;;;;;6.93;3.93;;;;;;;;;;5028500;28;20431;-72
2021/06/17 09:32:26;;;;;;;6.73;4.17;;;;;;;;;;5037279;28;20447;-73
2021/06/17 09:34:52;;;;;;;5.57;3.90;;;;;;;;;;5031049;28;20937;-72
2021/06/17 09:37:35;;;;;;;6.80;3.93;;;;;;;;;;5032774;28;20885;-73
2021/06/17 09:40:21;;;;;;;4.70;4.00;;;;;;;;;;5031826;28;20434;-74
2021/06/17 09:42:47;;;;;;;5.23;3.87;;;;;;;;;;5032757;28;20505;-71
2021/06/17 09:45:18;;;;;;;5.80;4.83;;;;;;;;;;5033542;28;20395;-71
2021/06/17 09:47:45;;;;;;;5.73;3.63;;;;;;;;;;5030266;28;20411;-74
2021/06/17 09:50:25;;;;;;;6.70;4.30;;;;;;;;;;5031907;28;20489;-74
2021/06/17 09:52:51;;;;;;;7.07;4.23;;;;;;;;;;5024205;28;20474;-70
2021/06/17 09:55:35;;;;;;;4.43;3.40;;;;;;;;;;5031947;28;20537;-71
2021/06/17 09:58:01;;;;;;;8.20;4.27;;;;;;;;;;5031300;28;20469;-72
2021/06/17 10:00:27;;;;;;;4.60;3.30;;;;;;;;;;5031969;28;20522;-70
2021/06/17 10:02:53;;;;;;;5.77;3.10;;;;;;;;;;5031881;28;20426;-71
2021/06/17 10:05:25;;;;;;;4.83;3.77;;;;;;;;;;5032997;28;20402;-70
2021/06/17 10:07:51;;;;;;;6.17;3.57;;;;;;;;;;5031814;28;20422;-71
2021/06/17 10:10:21;;;;;;;6.77;4.07;;;;;;;;;;5032147;28;20438;-73
2021/06/17 10:12:47;;;;;;;4.03;3.50;;;;;;;;;;5023924;28;20508;-71
2021/06/17 10:15:14;;;;;;;4.80;4.00;;;;;;;;;;5033087;28;20407;-72
2021/06/17 10:17:40;;;;;;;4.80;3.50;;;;;;;;;;5031639;28;20419;-70
2021/06/17 10:20:08;;;;;;;5.93;3.30;;;;;;;;;;5030864;28;20445;-70
2021/06/17 10:22:37;;;;;;;3.53;3.23;;;;;;;;;;5028099;28;20587;-69
2021/06/17 10:25:04;;;;;;;4.20;3.63;;;;;;;;;;5029241;28;20414;-73
2021/06/17 10:27:33;;;;;;;7.27;2.90;;;;;;;;;;5029717;28;20794;-71
2021/06/17 10:29:59;;;;;;;7.10;3.17;;;;;;;;;;5031575;28;20530;-70
2021/06/17 10:32:56;;;;;;;6.20;4.20;;;;;;;;;;5030696;28;20461;-71
2021/06/17 10:35:26;;;;;;;7.57;3.30;;;;;;;;;;5029465;28;20787;-71
2021/06/17 10:37:54;;;;;;;5.83;2.90;;;;;;;;;;5025294;28;22564;-71
2021/06/17 10:40:25;;;;;;;8.17;2.83;;;;;;;;;;5024669;28;20576;-71
2021/06/17 10:42:52;;;;;;;3.40;2.50;;;;;;;;;;5024620;28;20437;-71
2021/06/17 10:45:35;;;;;;;5.90;3.33;;;;;;;;;;5025544;28;20513;-71
2021/06/17 10:48:06;;;;;;;3.90;3.50;;;;;;;;;;5022521;28;21933;-73
2021/06/17 10:50:33;;;;;;;4.20;3.50;;;;;;;;;;5026663;28;20470;-71
2021/06/17 10:53:18;;;;;;;4.70;3.20;;;;;;;;;;5022911;28;20515;-72
2021/06/17 10:55:52;;;;;;;3.03;2.67;;;;;;;;;;5030695;28;20698;-72
2021/06/17 10:58:37;;;;;;;7.53;2.93;;;;;;;;;;5026599;28;20870;-71
2021/06/17 11:01:20;;;;;;;4.00;2.70;;;;;;;;;;5029883;28;20492;-71
2021/06/17 11:03:58;;;;;;;4.60;3.00;;;;;;;;;;5033791;28;20479;-71
2021/06/17 11:06:24;;;;;;;4.93;2.90;;;;;;;;;;5024315;28;20426;-70
2021/06/17 11:08:50;;;;;;;5.90;2.37;;;;;;;;;;5035751;28;20426;-71
2021/06/17 11:11:29;;;;;;;3.90;3.10;;;;;;;;;;5033758;28;21033;-71
2021/06/17 11:13:56;;;;;;;4.63;2.67;;;;;;;;;;5030812;28;20434;-69
2021/06/17 11:16:22;;;;;;;3.97;2.57;;;;;;;;;;5031323;28;20905;-70
2021/06/17 11:21:30;;;;;;;4.27;2.60;;;;;;;;;;5028215;28;20443;-73
2021/06/17 11:23:58;;;;;;;4.17;2.90;;;;;;;;;;5029221;28;20418;-72
2021/06/17 11:26:37;;;;;;;5.13;2.23;;;;;;;;;;5034686;28;20414;-73
2021/06/17 11:29:10;;;;;;;3.70;2.63;;;;;;;;;;5032140;28;20793;-72
2021/06/17 11:31:40;;;;;;;3.00;2.23;;;;;;;;;;5033617;28;20449;-73
2021/06/17 11:34:11;;;;;;;3.53;2.20;;;;;;;;;;5038782;28;20425;-72
2021/06/17 11:36:53;;;;;;;5.80;3.07;;;;;;;;;;5035038;28;20844;-72
2021/06/17 11:39:22;;;;;;;5.23;2.90;;;;;;;;;;5022847;28;20476;-72
2021/06/17 11:41:48;;;;;;;5.13;2.70;;;;;;;;;;5033684;28;20422;-73
2021/06/17 11:44:16;;;;;;;4.03;2.63;;;;;;;;;;5033130;28;20905;-72
2021/06/17 11:46:46;;;;;;;5.17;2.57;;;;;;;;;;5033420;28;20422;-74
2021/06/17 11:49:12;;;;;;;4.10;2.40;;;;;;;;;;5030455;28;20418;-73
2021/06/17 11:51:47;;;;;;;5.07;2.40;;;;;;;;;;5029683;28;20441;-74
2021/06/17 11:54:21;;;;;;;3.70;2.27;;;;;;;;;;5027462;28;20426;-75
2021/06/17 11:57:05;;;;;;;4.23;2.47;;;;;;;;;;5031367;28;20411;-74
2021/06/17 11:59:32;;;;;;;3.97;2.40;;;;;;;;;;5031189;28;20488;-72
2021/06/17 12:02:04;;;;;;;6.97;2.60;;;;;;;;;;5035150;28;20935;-72
2021/06/17 12:04:43;;;;;;;4.93;2.60;;;;;;;;;;5028195;28;20419;-72
2021/06/17 12:07:09;;;;;;;4.33;2.50;;;;;;;;;;5027640;28;20422;-70
2021/06/17 12:09:35;;;;;;;6.40;2.33;;;;;;;;;;5031219;28;20446;-71
2021/06/17 12:12:13;;;;;;;3.60;2.43;;;;;;;;;;5033126;28;20992;-72
2021/06/17 12:14:43;;;;;;;5.50;2.20;;;;;;;;;;5035910;28;20536;-75
2021/06/17 12:17:09;;;;;;;7.13;2.60;;;;;;;;;;5034558;28;20430;-78
2021/06/17 12:19:35;;;;;;;4.40;2.40;;;;;;;;;;5043179;28;20821;-78
2021/06/17 12:22:05;;;;;;;3.70;2.30;;;;;;;;;;5038177;28;20421;-78
2021/06/17 12:24:32;;;;;;;4.70;3.47;;;;;;;;;;5034365;28;20438;-73
2021/06/17 12:26:58;;;;;;;4.00;2.20;;;;;;;;;;5031229;28;20815;-74
2021/06/17 12:29:26;;;;;;;3.70;2.10;;;;;;;;;;5035629;28;20942;-75
2021/06/17 12:31:56;;;;;;;3.90;2.67;;;;;;;;;;5038444;28;20454;-74
2021/06/17 12:34:22;;;;;;;5.20;2.07;;;;;;;;;;5033928;28;20430;-74
2021/06/17 12:36:59;;;;;;;4.10;2.63;;;;;;;;;;5031856;28;20422;-74
2021/06/17 12:39:25;;;;;;;3.07;2.57;;;;;;;;;;5033186;28;20477;-74
2021/06/17 12:41:51;;;;;;;4.77;2.70;;;;;;;;;;5033904;28;20499;-76
2021/06/17 12:44:47;;;;;;;5.33;2.97;;;;;;;;;;5024305;28;20435;-73
2021/06/17 12:47:20;;;;;;;3.10;2.20;;;;;;;;;;5029747;28;20764;-75
2021/06/17 12:52:35;;;;;;;3.43;2.23;;;;;;;;;;5030155;28;20535;-76
2021/06/17 12:55:01;;;;;;;4.30;2.73;;;;;;;;;;5032718;28;20419;-74
2021/06/17 12:57:28;;;;;;;4.53;2.70;;;;;;;;;;5031327;28;20427;-73
2021/06/17 12:59:59;;;;;;;4.70;2.50;;;;;;;;;;5032183;28;20666;-74
2021/06/17 13:02:28;;;;;;;5.53;2.30;;;;;;;;;;5031695;28;21291;-73
2021/06/17 13:05:01;;;;;;;5.10;2.87;;;;;;;;;;5033506;28;20422;-77
2021/06/17 13:07:28;;;;;;;4.00;2.83;;;;;;;;;;5030713;28;20441;-72
2021/06/17 13:10:09;;;;;;;6.60;2.90;;;;;;;;;;5027999;28;20553;-75
2021/06/17 13:12:35;;;;;;;3.13;2.43;;;;;;;;;;5035909;28;20458;-74
2021/06/17 13:15:03;;;;;;;3.40;2.63;;;;;;;;;;5050231;28;20528;-74
2021/06/17 13:17:30;;;;;;;5.03;2.27;;;;;;;;;;5033877;28;20813;-75
2021/06/17 13:19:58;;;;;;;6.53;3.53;;;;;;;;;;5040726;28;20503;-73
2021/06/17 13:22:24;;;;;;;6.33;2.93;;;;;;;;;;5037919;28;20433;-72
2021/06/17 13:24:50;;;;;;;3.70;2.53;;;;;;;;;;5034649;28;20449;-72
2021/06/17 13:27:19;;;;;;;4.00;2.23;;;;;;;;;;5035678;28;20410;-72
2021/06/17 13:29:53;;;;;;;8.00;2.40;;;;;;;;;;5032975;28;20438;-72
2021/06/17 13:32:19;;;;;;;3.00;2.23;;;;;;;;;;5030506;28;20539;-72
2021/06/17 13:34:45;;;;;;;4.70;2.60;;;;;;;;;;5032610;28;20422;-74
2021/06/17 13:37:11;;;;;;;5.13;2.50;;;;;;;;;;5028507;28;20426;-71
2021/06/17 13:39:37;;;;;;;4.20;3.17;;;;;;;;;;5029543;28;20797;-72
2021/06/17 13:42:03;;;;;;;3.40;2.40;;;;;;;;;;5027550;28;20809;-73
2021/06/17 13:44:32;;;;;;;4.07;2.50;;;;;;;;;;5034379;28;20434;-72
2021/06/17 13:46:58;;;;;;;4.20;2.20;;;;;;;;;;5032212;28;20481;-73
2021/06/17 13:49:24;;;;;;;2.90;2.27;;;;;;;;;;5032224;28;21363;-73
2021/06/17 13:51:50;;;;;;;4.97;2.20;;;;;;;;;;5027489;28;20450;-75
2021/06/17 13:54:22;;;;;;;5.87;2.80;;;;;;;;;;5040632;28;20429;-75
2021/06/17 13:56:49;;;;;;;3.50;2.17;;;;;;;;;;5036705;28;20462;-75
2021/06/17 13:59:15;;;;;;;3.70;2.70;;;;;;;;;;5029548;28;20570;-70
2021/06/17 14:01:41;;;;;;;3.83;2.90;;;;;;;;;;5037993;28;20476;-70
2021/06/17 14:04:07;;;;;;;4.07;2.70;;;;;;;;;;5029652;28;20438;-74
2021/06/17 14:06:33;;;;;;;4.87;2.00;;;;;;;;;;5040898;28;20422;-76
2021/06/17 14:08:59;;;;;;;3.60;2.20;;;;;;;;;;5034867;28;20789;-73
2021/06/17 14:11:25;;;;;;;3.00;1.90;;;;;;;;;;5036459;28;20446;-76
2021/06/17 14:13:51;;;;;;;3.43;1.80;;;;;;;;;;5040504;28;21115;-76
2021/06/17 14:16:17;;;;;;;4.27;2.20;;;;;;;;;;5045944;28;20425;-72
2021/06/17 14:18:43;;;;;;;4.10;2.30;;;;;;;;;;5033089;28;20419;-70
2021/06/17 14:21:09;;;;;;;4.30;2.50;;;;;;;;;;5032431;28;20485;-78
2021/06/17 14:23:37;;;;;;;3.97;2.40;;;;;;;;;;5034226;28;20458;-74
2021/06/17 14:26:03;;;;;;;2.93;2.23;;;;;;;;;;5019529;28;20435;-74
2021/06/17 14:28:29;;;;;;;5.50;2.30;;;;;;;;;;5026574;28;20759;-73
2021/06/17 14:30:55;;;;;;;3.80;2.47;;;;;;;;;;5028182;28;20529;-76
2021/06/17 14:33:21;;;;;;;5.67;2.50;;;;;;;;;;5029758;28;20492;-75
2021/06/17 14:35:47;;;;;;;3.53;2.00;;;;;;;;;;5032011;28;20476;-75
2021/06/17 14:38:13;;;;;;;3.07;2.70;;;;;;;;;;5030367;28;20415;-74
2021/06/17 14:40:39;;;;;;;3.90;2.37;;;;;;;;;;5040159;28;20537;-73
2021/06/17 14:43:06;;;;;;;3.70;1.90;;;;;;;;;;5025403;28;20438;-75
2021/06/17 14:45:32;;;;;;;5.20;2.10;;;;;;;;;;5029819;28;20446;-74
2021/06/17 14:47:58;;;;;;;3.50;2.23;;;;;;;;;;5030848;28;20461;-74
2021/06/17 14:50:25;;;;;;;7.07;2.33;;;;;;;;;;5028995;28;20490;-77
2021/06/17 14:52:51;;;;;;;2.60;2.10;;;;;;;;;;5028094;28;20462;-79
2021/06/17 14:55:19;;;;;;;2.70;1.97;;;;;;;;;;5034449;28;20465;-76
2021/06/17 14:57:45;;;;;;;2.50;1.70;;;;;;;;;;5031996;28;20414;-75